createdAt,value
2022-12-14T00:00:40.598Z,952.29
2022-12-14T00:01:40.499Z,952.24
2022-12-14T00:02:40.629Z,952.17
2022-12-14T00:03:40.537Z,952.11
2022-12-14T00:04:40.489Z,952.14
2022-12-14T00:05:40.466Z,952.09
2022-12-14T00:06:40.483Z,952.02
2022-12-14T00:07:40.431Z,951.99
2022-12-14T00:08:42.014Z,952.03
2022-12-14T00:09:40.446Z,951.98
2022-12-14T00:10:40.419Z,952.04
2022-12-14T00:11:40.403Z,952.02
2022-12-14T00:12:40.437Z,952.02
2022-12-14T00:13:40.383Z,952.04
2022-12-14T00:14:40.363Z,952.04
2022-12-14T00:15:40.390Z,952.00
2022-12-14T00:16:40.352Z,951.98
2022-12-14T00:17:40.357Z,952.00
2022-12-14T00:18:40.312Z,952.09
2022-12-14T00:19:40.366Z,952.10
2022-12-14T00:20:40.302Z,952.10
2022-12-14T00:21:40.282Z,952.13
2022-12-14T00:22:40.295Z,952.07
2022-12-14T00:23:40.257Z,952.10
2022-12-14T00:24:40.267Z,952.07
2022-12-14T00:25:40.299Z,952.03
2022-12-14T00:26:40.228Z,952.01
2022-12-14T00:27:40.220Z,952.04
2022-12-14T00:28:40.224Z,952.08
2022-12-14T00:29:40.192Z,952.10
2022-12-14T00:30:40.183Z,952.20
2022-12-14T00:31:40.277Z,952.22
2022-12-14T00:32:40.178Z,952.31
2022-12-14T00:33:40.168Z,952.23
2022-12-14T00:34:40.155Z,952.23
2022-12-14T00:35:40.128Z,952.23
2022-12-14T00:36:40.118Z,952.18
2022-12-14T00:37:40.174Z,952.17
2022-12-14T00:38:40.125Z,952.22
2022-12-14T00:39:40.116Z,952.21
2022-12-14T00:40:40.094Z,952.15
2022-12-14T00:41:40.063Z,952.14
2022-12-14T00:42:40.069Z,952.12
2022-12-14T00:43:40.066Z,952.07
2022-12-14T00:44:40.032Z,952.04
2022-12-14T00:45:40.036Z,952.05
2022-12-14T00:46:40.106Z,952.05
2022-12-14T00:47:40.979Z,952.02
2022-12-14T00:48:40.005Z,952.09
2022-12-14T00:49:40.014Z,951.97
2022-12-14T00:50:39.974Z,952.06
2022-12-14T00:51:39.975Z,952.03
2022-12-14T00:52:39.963Z,952.05
2022-12-14T00:53:39.948Z,951.99
2022-12-14T00:54:39.938Z,952.05
2022-12-14T00:55:39.949Z,952.06
2022-12-14T00:56:39.910Z,952.07
2022-12-14T00:57:39.897Z,952.07
2022-12-14T00:58:39.903Z,952.14
2022-12-14T00:59:39.868Z,952.04
2022-12-14T01:00:39.858Z,952.02
2022-12-14T01:01:40.012Z,952.07
2022-12-14T01:02:39.864Z,952.06
2022-12-14T01:03:39.949Z,952.06
2022-12-14T01:04:39.815Z,952.08
2022-12-14T01:05:39.802Z,952.06
2022-12-14T01:06:39.812Z,952.09
2022-12-14T01:07:39.813Z,952.06
2022-12-14T01:08:39.777Z,952.01
2022-12-14T01:09:39.792Z,952.07
2022-12-14T01:10:39.749Z,951.99
2022-12-14T01:11:39.759Z,951.96
2022-12-14T01:12:39.728Z,952.00
2022-12-14T01:13:39.762Z,952.00
2022-12-14T01:14:39.725Z,952.14
2022-12-14T01:15:39.746Z,952.17
2022-12-14T01:16:39.729Z,952.22
2022-12-14T01:17:39.672Z,952.32
2022-12-14T01:18:39.663Z,952.22
2022-12-14T01:19:39.677Z,952.18
2022-12-14T01:20:39.665Z,952.19
2022-12-14T01:21:39.672Z,952.26
2022-12-14T01:22:39.618Z,952.20
2022-12-14T01:23:39.606Z,952.25
2022-12-14T01:24:39.605Z,952.32
2022-12-14T01:25:39.627Z,952.28
2022-12-14T01:26:39.638Z,952.27
2022-12-14T01:27:39.563Z,952.22
2022-12-14T01:28:39.554Z,952.23
2022-12-14T01:29:39.542Z,952.18
2022-12-14T01:30:39.539Z,952.12
2022-12-14T01:31:39.634Z,952.05
2022-12-14T01:32:39.518Z,951.95
2022-12-14T01:33:39.498Z,951.91
2022-12-14T01:34:39.538Z,951.95
2022-12-14T01:35:39.493Z,951.87
2022-12-14T01:36:39.483Z,951.87
2022-12-14T01:37:39.479Z,951.93
2022-12-14T01:38:39.512Z,951.91
2022-12-14T01:39:39.432Z,951.86
2022-12-14T01:40:39.443Z,951.85
2022-12-14T01:41:39.413Z,951.85
2022-12-14T01:42:39.427Z,951.90
2022-12-14T01:43:39.425Z,951.99
2022-12-14T01:44:39.406Z,952.04
2022-12-14T01:45:39.367Z,952.18
2022-12-14T01:46:39.384Z,952.17
2022-12-14T01:47:39.350Z,952.23
2022-12-14T01:48:39.338Z,952.22
2022-12-14T01:49:39.391Z,952.25
2022-12-14T01:50:39.333Z,952.23
2022-12-14T01:51:39.364Z,952.16
2022-12-14T01:52:39.401Z,952.06
2022-12-14T01:53:39.285Z,951.97
2022-12-14T01:54:39.271Z,951.89
2022-12-14T01:55:39.307Z,951.81
2022-12-14T01:56:39.250Z,951.78
2022-12-14T01:57:39.280Z,951.72
2022-12-14T01:58:39.229Z,951.78
2022-12-14T01:59:39.224Z,951.88
2022-12-14T02:00:39.209Z,951.96
2022-12-14T02:01:39.330Z,951.95
2022-12-14T02:02:39.311Z,952.06
2022-12-14T02:03:39.283Z,952.03
2022-12-14T02:04:39.163Z,951.93
2022-12-14T02:05:39.163Z,951.92
2022-12-14T02:06:39.150Z,951.88
2022-12-14T02:07:39.177Z,951.88
2022-12-14T02:08:39.149Z,951.84
2022-12-14T02:09:39.109Z,951.76
2022-12-14T02:10:39.123Z,951.77
2022-12-14T02:11:39.100Z,951.76
2022-12-14T02:12:39.086Z,951.72
2022-12-14T02:13:39.113Z,951.82
2022-12-14T02:14:39.053Z,951.86
2022-12-14T02:15:39.069Z,951.82
2022-12-14T02:16:39.090Z,951.85
2022-12-14T02:17:39.020Z,951.86
2022-12-14T02:18:39.023Z,951.87
2022-12-14T02:19:39.036Z,951.86
2022-12-14T02:20:38.989Z,951.79
2022-12-14T02:21:38.993Z,951.78
2022-12-14T02:22:38.972Z,951.66
2022-12-14T02:23:39.000Z,951.65
2022-12-14T02:24:38.975Z,951.59
2022-12-14T02:25:38.972Z,951.52
2022-12-14T02:26:38.922Z,951.54
2022-12-14T02:27:38.933Z,951.52
2022-12-14T02:28:38.911Z,951.54
2022-12-14T02:29:38.894Z,951.58
2022-12-14T02:30:38.890Z,951.55
2022-12-14T02:31:38.995Z,951.47
2022-12-14T02:32:38.870Z,951.43
2022-12-14T02:33:38.866Z,951.41
2022-12-14T02:34:38.846Z,951.34
2022-12-14T02:35:38.858Z,951.26
2022-12-14T02:36:38.839Z,951.24
2022-12-14T02:37:38.836Z,951.24
2022-12-14T02:38:38.801Z,951.29
2022-12-14T02:39:38.829Z,951.36
2022-12-14T02:40:38.784Z,951.40
2022-12-14T02:41:38.777Z,951.45
2022-12-14T02:42:38.777Z,951.41
2022-12-14T02:43:38.783Z,951.45
2022-12-14T02:44:38.726Z,951.50
2022-12-14T02:45:38.716Z,951.46
2022-12-14T02:46:38.740Z,951.43
2022-12-14T02:47:38.710Z,951.37
2022-12-14T02:48:38.704Z,951.38
2022-12-14T02:49:38.739Z,951.42
2022-12-14T02:50:38.661Z,951.40
2022-12-14T02:51:38.656Z,951.31
2022-12-14T02:52:38.639Z,951.34
2022-12-14T02:53:38.645Z,951.30
2022-12-14T02:54:38.651Z,951.32
2022-12-14T02:55:38.675Z,951.33
2022-12-14T02:56:38.597Z,951.28
2022-12-14T02:57:38.596Z,951.25
2022-12-14T02:58:38.600Z,951.23
2022-12-14T02:59:38.607Z,951.17
2022-12-14T03:00:38.604Z,951.18
2022-12-14T03:01:38.870Z,951.16
2022-12-14T03:02:38.638Z,951.09
2022-12-14T03:03:38.552Z,951.17
2022-12-14T03:04:38.515Z,951.13
2022-12-14T03:05:38.511Z,951.09
2022-12-14T03:06:38.488Z,951.08
2022-12-14T03:07:38.502Z,951.09
2022-12-14T03:08:38.465Z,951.01
2022-12-14T03:09:38.480Z,951.03
2022-12-14T03:10:38.482Z,950.93
2022-12-14T03:11:38.476Z,950.98
2022-12-14T03:12:38.456Z,950.97
2022-12-14T03:13:38.430Z,950.95
2022-12-14T03:14:38.400Z,950.97
2022-12-14T03:15:38.397Z,951.02
2022-12-14T03:16:38.425Z,951.03
2022-12-14T03:17:38.387Z,951.04
2022-12-14T03:18:38.370Z,950.99
2022-12-14T03:19:38.406Z,951.02
2022-12-14T03:20:38.342Z,951.11
2022-12-14T03:21:38.357Z,951.14
2022-12-14T03:22:38.329Z,951.19
2022-12-14T03:23:38.324Z,951.28
2022-12-14T03:24:38.291Z,951.25
2022-12-14T03:25:38.304Z,951.31
2022-12-14T03:26:41.704Z,951.34
2022-12-14T03:27:39.276Z,951.34
2022-12-14T03:28:38.263Z,951.30
2022-12-14T03:29:38.239Z,951.34
2022-12-14T03:30:59.429Z,951.30
2022-12-14T03:31:39.286Z,951.22
2022-12-14T03:32:38.219Z,951.18
2022-12-14T03:33:38.200Z,951.15
2022-12-14T03:34:38.205Z,951.11
2022-12-14T03:35:38.202Z,951.03
2022-12-14T03:36:38.167Z,951.01
2022-12-14T03:37:38.153Z,951.06
2022-12-14T03:38:38.165Z,951.03
2022-12-14T03:39:38.139Z,950.94
2022-12-14T03:40:38.145Z,951.00
2022-12-14T03:41:38.108Z,950.97
2022-12-14T03:42:38.097Z,950.94
2022-12-14T03:43:38.111Z,950.95
2022-12-14T03:44:48.789Z,950.93
2022-12-14T03:45:39.184Z,950.87
2022-12-14T03:46:38.071Z,950.87
2022-12-14T03:47:38.048Z,950.90
2022-12-14T03:48:38.031Z,950.96
2022-12-14T03:49:38.025Z,950.89
2022-12-14T03:50:38.036Z,950.91
2022-12-14T03:51:38.016Z,950.91
2022-12-14T03:52:38.022Z,950.95
2022-12-14T03:53:37.982Z,950.95
2022-12-14T03:54:37.967Z,950.98
2022-12-14T03:55:37.988Z,951.02
2022-12-14T03:56:37.970Z,950.95
2022-12-14T03:57:37.952Z,951.00
2022-12-14T03:58:37.923Z,950.92
2022-12-14T03:59:37.948Z,950.91
2022-12-14T04:00:37.966Z,950.93
2022-12-14T04:01:38.045Z,950.94
2022-12-14T04:02:40.989Z,950.93
2022-12-14T04:03:37.880Z,950.99
2022-12-14T04:04:37.857Z,950.99
2022-12-14T04:05:37.848Z,950.93
2022-12-14T04:06:37.835Z,951.03
2022-12-14T04:07:37.910Z,951.02
2022-12-14T04:08:37.821Z,950.99
2022-12-14T04:09:37.864Z,951.00
2022-12-14T04:10:37.792Z,951.04
2022-12-14T04:11:37.782Z,950.93
2022-12-14T04:12:37.774Z,950.94
2022-12-14T04:13:37.762Z,950.92
2022-12-14T04:14:37.788Z,950.92
2022-12-14T04:15:37.796Z,950.92
2022-12-14T04:16:37.807Z,950.95
2022-12-14T04:17:37.721Z,950.90
2022-12-14T04:18:37.723Z,950.89
2022-12-14T04:19:37.697Z,950.91
2022-12-14T04:20:37.700Z,950.89
2022-12-14T04:21:37.708Z,950.86
2022-12-14T04:22:37.667Z,950.86
2022-12-14T04:23:37.680Z,950.92
2022-12-14T04:24:37.653Z,950.91
2022-12-14T04:25:37.631Z,950.87
2022-12-14T04:26:37.636Z,950.76
2022-12-14T04:27:37.664Z,950.87
2022-12-14T04:28:37.599Z,950.78
2022-12-14T04:29:40.416Z,950.80
2022-12-14T04:30:38.585Z,950.80
2022-12-14T04:31:37.631Z,950.78
2022-12-14T04:32:37.589Z,950.76
2022-12-14T04:33:37.586Z,950.74
2022-12-14T04:34:37.549Z,950.74
2022-12-14T04:35:37.523Z,950.69
2022-12-14T04:36:37.515Z,950.72
2022-12-14T04:37:37.505Z,950.68
2022-12-14T04:38:37.506Z,950.61
2022-12-14T04:39:37.533Z,950.58
2022-12-14T04:40:37.468Z,950.54
2022-12-14T04:41:37.463Z,950.50
2022-12-14T04:42:37.469Z,950.52
2022-12-14T04:43:37.476Z,950.47
2022-12-14T04:44:37.450Z,950.42
2022-12-14T04:45:37.509Z,950.38
2022-12-14T04:46:40.609Z,950.37
2022-12-14T04:47:37.414Z,950.34
2022-12-14T04:48:37.409Z,950.39
2022-12-14T04:49:37.396Z,950.38
2022-12-14T04:50:37.390Z,950.40
2022-12-14T04:51:37.349Z,950.34
2022-12-14T04:52:37.363Z,950.36
2022-12-14T04:53:37.341Z,950.37
2022-12-14T04:54:37.318Z,950.35
2022-12-14T04:55:37.321Z,950.34
2022-12-14T04:56:37.294Z,950.33
2022-12-14T04:57:37.284Z,950.33
2022-12-14T04:58:37.290Z,950.28
2022-12-14T04:59:37.274Z,950.31
2022-12-14T05:00:37.287Z,950.38
2022-12-14T05:01:37.390Z,950.35
2022-12-14T05:02:37.340Z,950.40
2022-12-14T05:03:37.237Z,950.37
2022-12-14T05:04:37.247Z,950.44
2022-12-14T05:05:37.221Z,950.41
2022-12-14T05:06:37.195Z,950.35
2022-12-14T05:07:37.196Z,950.26
2022-12-14T05:08:37.166Z,950.29
2022-12-14T05:09:37.179Z,950.28
2022-12-14T05:10:37.178Z,950.29
2022-12-14T05:11:53.024Z,950.31
2022-12-14T05:12:38.143Z,950.23
2022-12-14T05:13:37.123Z,950.25
2022-12-14T05:14:37.129Z,950.25
2022-12-14T05:15:37.105Z,950.29
2022-12-14T05:16:37.157Z,950.32
2022-12-14T05:17:37.097Z,950.35
2022-12-14T05:18:37.069Z,950.28
2022-12-14T05:19:37.097Z,950.29
2022-12-14T05:20:37.034Z,950.35
2022-12-14T05:21:37.022Z,950.34
2022-12-14T05:22:37.121Z,950.29
2022-12-14T05:23:37.005Z,950.36
2022-12-14T05:24:37.005Z,950.35
2022-12-14T05:25:36.997Z,950.40
2022-12-14T05:26:36.968Z,950.35
2022-12-14T05:27:36.958Z,950.38
2022-12-14T05:28:37.035Z,950.41
2022-12-14T05:29:36.935Z,950.39
2022-12-14T05:30:37.014Z,950.30
2022-12-14T05:31:36.914Z,950.28
2022-12-14T05:32:36.904Z,950.22
2022-12-14T05:33:36.917Z,950.20
2022-12-14T05:34:36.963Z,950.13
2022-12-14T05:35:36.897Z,950.03
2022-12-14T05:36:36.869Z,950.07
2022-12-14T05:37:36.855Z,950.10
2022-12-14T05:38:36.840Z,950.01
2022-12-14T05:39:36.833Z,950.12
2022-12-14T05:40:36.896Z,950.17
2022-12-14T05:41:36.816Z,950.09
2022-12-14T05:42:41.036Z,950.18
2022-12-14T05:43:37.805Z,950.13
2022-12-14T05:44:36.773Z,950.17
2022-12-14T05:45:36.878Z,950.19
2022-12-14T05:46:36.784Z,950.09
2022-12-14T05:47:36.804Z,950.10
2022-12-14T05:48:36.749Z,950.13
2022-12-14T05:49:36.719Z,950.07
2022-12-14T05:50:36.720Z,950.07
2022-12-14T05:51:36.720Z,950.04
2022-12-14T05:52:36.731Z,950.01
2022-12-14T05:53:36.689Z,949.98
2022-12-14T05:54:36.662Z,949.90
2022-12-14T05:55:36.690Z,949.87
2022-12-14T05:56:36.652Z,949.82
2022-12-14T05:57:36.633Z,949.75
2022-12-14T05:58:36.680Z,949.75
2022-12-14T05:59:36.680Z,949.72
2022-12-14T06:00:36.639Z,949.66
2022-12-14T06:01:36.655Z,949.60
2022-12-14T06:02:36.684Z,949.62
2022-12-14T06:03:36.569Z,949.66
2022-12-14T06:04:36.605Z,949.62
2022-12-14T06:05:36.552Z,949.61
2022-12-14T06:06:36.538Z,949.67
2022-12-14T06:07:36.538Z,949.63
2022-12-14T06:08:36.532Z,949.67
2022-12-14T06:09:36.515Z,949.70
2022-12-14T06:10:36.517Z,949.74
2022-12-14T06:11:36.492Z,949.71
2022-12-14T06:12:36.466Z,949.75
2022-12-14T06:13:36.476Z,949.73
2022-12-14T06:14:36.468Z,949.72
2022-12-14T06:15:36.506Z,949.69
2022-12-14T06:16:36.488Z,949.63
2022-12-14T06:17:36.435Z,949.60
2022-12-14T06:18:36.405Z,949.52
2022-12-14T06:19:36.397Z,949.51
2022-12-14T06:20:36.415Z,949.55
2022-12-14T06:21:36.413Z,949.47
2022-12-14T06:22:36.438Z,949.45
2022-12-14T06:23:36.369Z,949.40
2022-12-14T06:24:36.338Z,949.43
2022-12-14T06:25:36.338Z,949.38
2022-12-14T06:26:36.344Z,949.42
2022-12-14T06:27:36.304Z,949.46
2022-12-14T06:28:36.328Z,949.44
2022-12-14T06:29:36.281Z,949.47
2022-12-14T06:30:36.272Z,949.45
2022-12-14T06:31:36.284Z,949.49
2022-12-14T06:32:36.259Z,949.53
2022-12-14T06:33:36.241Z,949.53
2022-12-14T06:34:39.884Z,949.50
2022-12-14T06:35:36.242Z,949.43
2022-12-14T06:36:36.209Z,949.38
2022-12-14T06:37:36.196Z,949.35
2022-12-14T06:38:36.198Z,949.38
2022-12-14T06:39:36.371Z,949.48
2022-12-14T06:40:36.201Z,949.47
2022-12-14T06:41:36.186Z,949.41
2022-12-14T06:42:36.155Z,949.41
2022-12-14T06:43:36.130Z,949.45
2022-12-14T06:44:36.137Z,949.48
2022-12-14T06:45:36.119Z,949.47
2022-12-14T06:46:36.251Z,949.40
2022-12-14T06:47:36.125Z,949.36
2022-12-14T06:48:36.088Z,949.33
2022-12-14T06:49:36.093Z,949.36
2022-12-14T06:50:36.056Z,949.33
2022-12-14T06:51:36.059Z,949.36
2022-12-14T06:52:36.073Z,949.37
2022-12-14T06:53:36.027Z,949.34
2022-12-14T06:54:36.027Z,949.35
2022-12-14T06:55:36.023Z,949.45
2022-12-14T06:56:35.990Z,949.34
2022-12-14T06:57:36.005Z,949.32
2022-12-14T06:58:36.006Z,949.38
2022-12-14T06:59:35.973Z,949.30
2022-12-14T07:00:35.968Z,949.40
2022-12-14T07:01:36.086Z,949.33
2022-12-14T07:02:36.219Z,949.35
2022-12-14T07:03:36.122Z,949.27
2022-12-14T07:04:35.955Z,949.27
2022-12-14T07:05:35.900Z,949.24
2022-12-14T07:06:35.905Z,949.16
2022-12-14T07:07:35.871Z,949.20
2022-12-14T07:08:35.865Z,949.19
2022-12-14T07:09:35.875Z,949.20
2022-12-14T07:10:35.879Z,949.23
2022-12-14T07:11:35.856Z,949.17
2022-12-14T07:12:35.847Z,949.20
2022-12-14T07:13:35.820Z,949.10
2022-12-14T07:14:35.807Z,949.06
2022-12-14T07:15:35.850Z,949.09
2022-12-14T07:16:35.813Z,949.12
2022-12-14T07:17:35.793Z,949.10
2022-12-14T07:18:35.774Z,949.08
2022-12-14T07:19:35.740Z,949.08
2022-12-14T07:20:35.743Z,949.06
2022-12-14T07:21:35.741Z,949.12
2022-12-14T07:22:35.768Z,949.12
2022-12-14T07:23:36.112Z,949.11
2022-12-14T07:24:35.720Z,949.12
2022-12-14T07:25:35.674Z,949.18
2022-12-14T07:26:35.679Z,949.13
2022-12-14T07:27:35.703Z,949.13
2022-12-14T07:28:35.699Z,949.12
2022-12-14T07:29:35.630Z,949.10
2022-12-14T07:30:35.638Z,949.08
2022-12-14T07:31:35.627Z,949.09
2022-12-14T07:32:35.606Z,949.10
2022-12-14T07:33:35.640Z,949.09
2022-12-14T07:34:35.623Z,949.13
2022-12-14T07:35:35.564Z,949.04
2022-12-14T07:36:35.566Z,949.05
2022-12-14T07:37:35.579Z,949.09
2022-12-14T07:38:35.553Z,949.04
2022-12-14T07:39:35.549Z,949.07
2022-12-14T07:40:35.546Z,949.07
2022-12-14T07:41:35.497Z,949.08
2022-12-14T07:42:35.506Z,949.12
2022-12-14T07:43:35.510Z,949.09
2022-12-14T07:44:35.512Z,949.13
2022-12-14T07:45:35.455Z,949.17
2022-12-14T07:46:35.573Z,949.15
2022-12-14T07:47:35.436Z,949.14
2022-12-14T07:48:35.427Z,949.04
2022-12-14T07:49:35.430Z,948.99
2022-12-14T07:50:35.425Z,949.00
2022-12-14T07:51:35.532Z,948.96
2022-12-14T07:52:37.601Z,949.02
2022-12-14T07:53:35.374Z,948.98
2022-12-14T07:54:35.394Z,948.95
2022-12-14T07:55:35.366Z,948.98
2022-12-14T07:56:35.363Z,948.94
2022-12-14T07:57:35.327Z,948.96
2022-12-14T07:58:35.337Z,948.94
2022-12-14T07:59:35.365Z,948.95
2022-12-14T08:00:35.298Z,948.90
2022-12-14T08:01:35.444Z,948.94
2022-12-14T08:02:35.451Z,948.89
2022-12-14T08:03:35.263Z,948.89
2022-12-14T08:04:35.359Z,948.91
2022-12-14T08:05:35.271Z,948.94
2022-12-14T08:06:35.234Z,948.90
2022-12-14T08:07:35.231Z,948.92
2022-12-14T08:08:35.212Z,948.92
2022-12-14T08:09:35.199Z,948.98
2022-12-14T08:10:40.191Z,948.94
2022-12-14T08:11:36.211Z,948.99
2022-12-14T08:12:35.201Z,949.02
2022-12-14T08:13:35.170Z,949.00
2022-12-14T08:14:43.907Z,949.08
2022-12-14T08:15:35.146Z,949.08
2022-12-14T08:16:35.215Z,949.03
2022-12-14T08:17:35.129Z,948.99
2022-12-14T08:18:35.114Z,949.00
2022-12-14T08:19:35.120Z,948.95
2022-12-14T08:20:35.079Z,948.94
2022-12-14T08:21:35.120Z,948.81
2022-12-14T08:22:35.059Z,948.74
2022-12-14T08:23:35.047Z,948.65
2022-12-14T08:24:35.102Z,948.62
2022-12-14T08:25:35.043Z,948.55
2022-12-14T08:26:35.930Z,948.54
2022-12-14T08:27:35.004Z,948.52
2022-12-14T08:28:34.999Z,948.48
2022-12-14T08:29:35.007Z,948.50
2022-12-14T08:30:35.154Z,948.57
2022-12-14T08:31:35.021Z,948.59
2022-12-14T08:32:34.957Z,948.60
2022-12-14T08:33:34.940Z,948.64
2022-12-14T08:34:34.947Z,948.64
2022-12-14T08:35:34.919Z,948.64
2022-12-14T08:36:34.950Z,948.62
2022-12-14T08:37:34.896Z,948.54
2022-12-14T08:38:34.901Z,948.54
2022-12-14T08:39:34.903Z,948.56
2022-12-14T08:40:34.880Z,948.64
2022-12-14T08:41:34.885Z,948.63
2022-12-14T08:42:34.855Z,948.64
2022-12-14T08:43:34.830Z,948.59
2022-12-14T08:44:34.880Z,948.61
2022-12-14T08:45:34.832Z,948.57
2022-12-14T08:46:35.022Z,948.54
2022-12-14T08:47:34.797Z,948.58
2022-12-14T08:48:34.799Z,948.59
2022-12-14T08:49:34.795Z,948.61
2022-12-14T08:50:34.769Z,948.65
2022-12-14T08:51:34.741Z,948.63
2022-12-14T08:52:34.733Z,948.61
2022-12-14T08:53:34.734Z,948.64
2022-12-14T08:54:34.749Z,948.64
2022-12-14T08:55:38.687Z,948.62
2022-12-14T08:56:34.715Z,948.60
2022-12-14T08:57:34.685Z,948.68
2022-12-14T08:58:34.670Z,948.70
2022-12-14T09:00:00.288Z,948.68
2022-12-14T09:00:35.720Z,948.60
2022-12-14T09:01:35.147Z,948.64
2022-12-14T09:02:34.776Z,948.58
2022-12-14T09:03:34.698Z,948.63
2022-12-14T09:04:34.605Z,948.63
2022-12-14T09:05:34.611Z,948.63
2022-12-14T09:06:34.604Z,948.60
2022-12-14T09:07:34.571Z,948.64
2022-12-14T09:08:34.562Z,948.60
2022-12-14T09:09:34.588Z,948.58
2022-12-14T09:10:34.548Z,948.58
2022-12-14T09:11:34.548Z,948.52
2022-12-14T09:12:34.524Z,948.53
2022-12-14T09:13:34.897Z,948.48
2022-12-14T09:14:34.517Z,948.49
2022-12-14T09:15:34.617Z,948.51
2022-12-14T09:16:34.572Z,948.50
2022-12-14T09:17:35.498Z,948.43
2022-12-14T09:18:34.603Z,948.42
2022-12-14T09:19:34.494Z,948.43
2022-12-14T09:20:34.433Z,948.35
2022-12-14T09:21:34.490Z,948.41
2022-12-14T09:22:34.419Z,948.40
2022-12-14T09:23:34.694Z,948.36
2022-12-14T09:24:34.442Z,948.31
2022-12-14T09:25:34.376Z,948.27
2022-12-14T09:26:34.372Z,948.19
2022-12-14T09:27:34.384Z,948.12
2022-12-14T09:28:34.360Z,948.03
2022-12-14T09:29:34.366Z,948.01
2022-12-14T09:30:34.321Z,947.99
2022-12-14T09:31:34.413Z,947.99
2022-12-14T09:32:34.333Z,947.88
2022-12-14T09:33:34.474Z,947.84
2022-12-14T09:34:34.285Z,947.84
2022-12-14T09:35:34.320Z,947.83
2022-12-14T09:36:34.304Z,947.71
2022-12-14T09:37:34.246Z,947.66
2022-12-14T09:38:34.244Z,947.70
2022-12-14T09:39:34.399Z,947.67
2022-12-14T09:40:34.223Z,947.69
2022-12-14T09:41:34.284Z,947.59
2022-12-14T09:42:34.190Z,947.64
2022-12-14T09:43:36.873Z,947.63
2022-12-14T09:44:34.191Z,947.63
2022-12-14T09:45:34.321Z,947.59
2022-12-14T09:46:34.158Z,947.66
2022-12-14T09:47:34.167Z,947.70
2022-12-14T09:48:34.176Z,947.71
2022-12-14T09:49:34.143Z,947.73
2022-12-14T09:50:34.120Z,947.82
2022-12-14T09:51:34.174Z,947.84
2022-12-14T09:52:34.106Z,947.81
2022-12-14T09:53:34.069Z,947.83
2022-12-14T09:54:34.080Z,947.79
2022-12-14T09:55:34.052Z,947.77
2022-12-14T09:56:34.069Z,947.78
2022-12-14T09:57:34.064Z,947.72
2022-12-14T09:58:34.039Z,947.69
2022-12-14T09:59:34.012Z,947.60
2022-12-14T10:00:33.995Z,947.55
2022-12-14T10:01:34.192Z,947.51
2022-12-14T10:02:34.625Z,947.50
2022-12-14T10:03:34.721Z,947.46
2022-12-14T10:04:34.010Z,947.46
2022-12-14T10:05:33.939Z,947.47
2022-12-14T10:06:33.953Z,947.51
2022-12-14T10:07:34.498Z,947.46
2022-12-14T10:08:34.263Z,947.44
2022-12-14T10:09:33.909Z,947.39
2022-12-14T10:10:33.915Z,947.45
2022-12-14T10:11:33.874Z,947.53
2022-12-14T10:12:34.523Z,947.51
2022-12-14T10:13:34.042Z,947.55
2022-12-14T10:14:33.893Z,947.53
2022-12-14T10:15:33.852Z,947.49
2022-12-14T10:16:33.865Z,947.49
2022-12-14T10:17:33.809Z,947.43
2022-12-14T10:18:58.403Z,947.38
2022-12-14T10:19:34.830Z,947.38
2022-12-14T10:20:33.811Z,947.29
2022-12-14T10:21:33.798Z,947.32
2022-12-14T10:22:33.803Z,947.28
2022-12-14T10:23:33.765Z,947.22
2022-12-14T10:24:33.750Z,947.13
2022-12-14T10:25:33.724Z,947.09
2022-12-14T10:26:33.753Z,947.05
2022-12-14T10:27:48.020Z,947.08
2022-12-14T10:28:34.694Z,946.99
2022-12-14T10:29:33.697Z,946.97
2022-12-14T10:30:33.679Z,946.97
2022-12-14T10:31:33.836Z,946.98
2022-12-14T10:32:33.654Z,946.95
2022-12-14T10:33:33.637Z,946.92
2022-12-14T10:34:33.676Z,946.93
2022-12-14T10:35:33.615Z,946.89
2022-12-14T10:36:33.616Z,946.96
2022-12-14T10:37:33.632Z,946.95
2022-12-14T10:38:34.050Z,946.86
2022-12-14T10:39:33.570Z,946.91
2022-12-14T10:40:34.989Z,946.86
2022-12-14T10:41:33.549Z,946.79
2022-12-14T10:42:33.595Z,946.78
2022-12-14T10:43:33.563Z,946.77
2022-12-14T10:44:33.532Z,946.70
2022-12-14T10:45:41.946Z,946.76
2022-12-14T10:46:34.663Z,946.74
2022-12-14T10:47:33.495Z,946.68
2022-12-14T10:48:33.799Z,946.72
2022-12-14T10:49:33.476Z,946.70
2022-12-14T10:50:33.487Z,946.67
2022-12-14T10:51:33.440Z,946.70
2022-12-14T10:52:33.430Z,946.72
2022-12-14T10:53:38.759Z,946.74
2022-12-14T10:54:34.437Z,946.73
2022-12-14T10:55:33.416Z,946.75
2022-12-14T10:56:33.491Z,946.77
2022-12-14T10:57:33.375Z,946.81
2022-12-14T10:58:33.640Z,946.83
2022-12-14T10:59:39.599Z,946.82
2022-12-14T11:00:34.385Z,946.86
2022-12-14T11:01:33.538Z,946.82
2022-12-14T11:02:33.427Z,946.82
2022-12-14T11:03:33.411Z,946.74
2022-12-14T11:04:33.298Z,946.70
2022-12-14T11:05:36.647Z,946.75
2022-12-14T11:06:33.296Z,946.72
2022-12-14T11:07:33.289Z,946.81
2022-12-14T11:08:33.284Z,946.78
2022-12-14T11:09:33.244Z,946.84
2022-12-14T11:10:33.232Z,946.86
2022-12-14T11:11:33.304Z,946.84
2022-12-14T11:12:33.225Z,946.84
2022-12-14T11:13:33.218Z,946.84
2022-12-14T11:14:33.257Z,946.89
2022-12-14T11:15:33.194Z,946.88
2022-12-14T11:16:36.350Z,946.80
2022-12-14T11:17:33.292Z,946.82
2022-12-14T11:18:33.520Z,946.80
2022-12-14T11:19:33.175Z,946.89
2022-12-14T11:20:33.139Z,946.93
2022-12-14T11:21:33.116Z,946.91
2022-12-14T11:22:33.110Z,946.84
2022-12-14T11:23:33.093Z,946.78
2022-12-14T11:24:33.135Z,946.69
2022-12-14T11:25:33.070Z,946.67
2022-12-14T11:26:33.071Z,946.68
2022-12-14T11:27:33.049Z,946.66
2022-12-14T11:28:37.607Z,946.66
2022-12-14T11:29:34.055Z,946.63
2022-12-14T11:30:33.110Z,946.70
2022-12-14T11:31:33.044Z,946.70
2022-12-14T11:32:33.012Z,946.74
2022-12-14T11:33:32.985Z,946.79
2022-12-14T11:34:32.984Z,946.83
2022-12-14T11:35:33.005Z,946.74
2022-12-14T11:36:32.967Z,946.72
2022-12-14T11:37:32.971Z,946.66
2022-12-14T11:38:33.193Z,946.64
2022-12-14T11:39:32.949Z,946.56
2022-12-14T11:40:32.913Z,946.65
2022-12-14T11:41:32.911Z,946.64
2022-12-14T11:42:32.906Z,946.67
2022-12-14T11:43:32.877Z,946.66
2022-12-14T11:44:32.933Z,946.68
2022-12-14T11:45:32.870Z,946.62
2022-12-14T11:46:32.944Z,946.61
2022-12-14T11:47:32.864Z,946.66
2022-12-14T11:48:33.267Z,946.69
2022-12-14T11:49:32.812Z,946.71
2022-12-14T11:50:32.854Z,946.61
2022-12-14T11:51:32.797Z,946.57
2022-12-14T11:52:32.812Z,946.56
2022-12-14T11:53:32.790Z,946.56
2022-12-14T11:54:32.756Z,946.54
2022-12-14T11:55:32.751Z,946.53
2022-12-14T11:56:32.773Z,946.58
2022-12-14T11:57:32.725Z,946.50
2022-12-14T11:58:33.306Z,946.43
2022-12-14T11:59:32.727Z,946.37
2022-12-14T12:00:32.687Z,946.31
2022-12-14T12:01:32.741Z,946.27
2022-12-14T12:02:32.788Z,946.30
2022-12-14T12:03:32.719Z,946.35
2022-12-14T12:04:32.657Z,946.36
2022-12-14T12:05:32.670Z,946.37
2022-12-14T12:06:32.659Z,946.36
2022-12-14T12:07:32.616Z,946.38
2022-12-14T12:08:33.487Z,946.29
2022-12-14T12:09:32.591Z,946.37
2022-12-14T12:10:32.599Z,946.31
2022-12-14T12:11:32.591Z,946.37
2022-12-14T12:12:32.558Z,946.33
2022-12-14T12:13:32.550Z,946.27
2022-12-14T12:14:32.563Z,946.34
2022-12-14T12:15:32.653Z,946.30
2022-12-14T12:16:32.620Z,946.36
2022-12-14T12:17:32.503Z,946.31
2022-12-14T12:18:33.229Z,946.27
2022-12-14T12:19:32.485Z,946.34
2022-12-14T12:20:32.490Z,946.33
2022-12-14T12:21:33.401Z,946.25
2022-12-14T12:22:32.448Z,946.20
2022-12-14T12:23:32.799Z,946.28
2022-12-14T12:24:32.425Z,946.21
2022-12-14T12:25:37.235Z,946.12
2022-12-14T12:26:33.441Z,946.20
2022-12-14T12:27:32.404Z,946.34
2022-12-14T12:28:32.717Z,946.24